createdAt,value
2017-12-24T00:00:36.125Z,9.60
2017-12-24T00:03:10.666Z,9.58
2017-12-24T00:05:45.071Z,9.57
2017-12-24T00:08:19.609Z,9.56
2017-12-24T00:10:54.162Z,9.55
2017-12-24T00:13:28.684Z,9.57
2017-12-24T00:16:03.077Z,9.55
2017-12-24T00:18:37.637Z,9.59
2017-12-24T00:21:12.018Z,9.57
2017-12-24T00:23:46.603Z,9.55
2017-12-24T00:26:21.051Z,9.56
2017-12-24T00:28:55.621Z,9.55
2017-12-24T00:31:30.102Z,9.50
2017-12-24T00:34:04.556Z,9.51
2017-12-24T00:36:39.017Z,9.52
2017-12-24T00:39:13.562Z,9.45
2017-12-24T00:41:48.030Z,9.47
2017-12-24T00:44:22.590Z,9.48
2017-12-24T00:46:57.082Z,9.42
2017-12-24T00:49:31.405Z,9.42
2017-12-24T00:52:05.777Z,9.45
2017-12-24T00:54:40.384Z,9.28
2017-12-24T00:57:14.798Z,9.45
2017-12-24T00:59:49.350Z,9.48
2017-12-24T01:02:23.769Z,9.49
2017-12-24T01:04:58.306Z,9.51
2017-12-24T01:07:32.770Z,9.56
2017-12-24T01:10:07.199Z,8.56
2017-12-24T01:12:41.686Z,9.49
2017-12-24T01:15:16.078Z,9.54
2017-12-24T01:17:50.606Z,9.52
2017-12-24T01:20:25.093Z,9.50
2017-12-24T01:22:59.665Z,9.48
2017-12-24T01:25:34.245Z,9.46
2017-12-24T01:28:08.766Z,9.49
2017-12-24T01:30:43.171Z,9.42
2017-12-24T01:33:17.795Z,9.34
2017-12-24T01:35:52.182Z,9.34
2017-12-24T01:38:26.647Z,9.30
2017-12-24T01:41:01.059Z,9.35
2017-12-24T01:43:35.553Z,9.37
2017-12-24T01:46:09.991Z,9.37
2017-12-24T01:48:44.365Z,9.29
2017-12-24T01:51:18.773Z,9.34
2017-12-24T01:53:53.310Z,9.34
2017-12-24T01:56:27.765Z,9.36
2017-12-24T01:59:02.267Z,9.37
2017-12-24T02:01:36.725Z,9.40
2017-12-24T02:04:11.214Z,9.45
2017-12-24T02:06:45.638Z,9.24
2017-12-24T02:09:20.197Z,9.28
2017-12-24T02:11:54.622Z,9.32
2017-12-24T02:14:29.162Z,9.28
2017-12-24T02:17:03.589Z,9.19
2017-12-24T02:19:38.010Z,9.13
2017-12-24T02:22:12.613Z,9.17
2017-12-24T02:24:47.122Z,9.18
2017-12-24T02:27:21.485Z,9.14
2017-12-24T02:29:56.184Z,9.15
2017-12-24T02:32:30.626Z,9.13
2017-12-24T02:35:05.233Z,9.08
2017-12-24T02:37:39.697Z,9.07
2017-12-24T02:40:14.334Z,9.01
2017-12-24T02:42:48.682Z,8.99
2017-12-24T02:45:23.037Z,8.98
2017-12-24T02:47:57.569Z,8.97
2017-12-24T02:50:31.961Z,8.95
2017-12-24T02:53:06.597Z,8.87
2017-12-24T02:55:41.186Z,8.85
2017-12-24T02:58:15.814Z,8.81
2017-12-24T03:00:50.218Z,8.80
2017-12-24T03:03:24.782Z,8.77
2017-12-24T03:05:59.161Z,8.79
2017-12-24T03:08:33.637Z,8.82
2017-12-24T03:11:08.025Z,8.86
2017-12-24T03:13:42.554Z,8.84
2017-12-24T03:16:16.934Z,8.86
2017-12-24T03:18:51.542Z,8.91
2017-12-24T03:21:25.946Z,8.86
2017-12-24T03:24:00.373Z,8.83
2017-12-24T03:26:34.746Z,8.83
2017-12-24T03:29:09.221Z,8.61
2017-12-24T03:31:43.696Z,8.78
2017-12-24T03:34:18.230Z,8.75
2017-12-24T03:36:52.718Z,8.71
2017-12-24T03:39:27.278Z,8.70
2017-12-24T03:42:01.641Z,8.70
2017-12-24T03:44:36.171Z,8.69
2017-12-24T03:47:10.595Z,8.71
2017-12-24T03:49:45.199Z,8.72
2017-12-24T03:52:19.570Z,8.70
2017-12-24T03:54:54.049Z,8.62
2017-12-24T03:57:28.468Z,8.64
2017-12-24T04:00:02.982Z,8.59
2017-12-24T04:02:37.369Z,8.36
2017-12-24T04:05:11.782Z,8.63
2017-12-24T04:07:46.177Z,8.65
2017-12-24T04:10:20.533Z,8.61
2017-12-24T04:12:55.101Z,8.62
2017-12-24T04:15:29.518Z,8.65
2017-12-24T04:18:03.934Z,8.64
2017-12-24T04:20:38.291Z,8.58
2017-12-24T04:23:12.786Z,8.58
2017-12-24T04:25:47.165Z,8.56
2017-12-24T04:28:21.740Z,8.53
2017-12-24T04:30:56.162Z,8.56
2017-12-24T04:33:30.666Z,8.54
2017-12-24T04:36:05.031Z,8.49
2017-12-24T04:38:39.650Z,8.46
2017-12-24T04:41:14.222Z,8.45
2017-12-24T04:43:48.724Z,8.42
2017-12-24T04:46:23.114Z,8.41
2017-12-24T04:48:57.474Z,8.38
2017-12-24T04:51:31.890Z,8.34
2017-12-24T04:54:06.493Z,8.35
2017-12-24T04:56:40.854Z,8.34
2017-12-24T04:59:15.830Z,8.34
2017-12-24T05:01:50.217Z,8.32
2017-12-24T05:04:24.920Z,8.37
2017-12-24T05:06:59.369Z,8.35
2017-12-24T05:09:34.003Z,8.35
2017-12-24T05:12:08.437Z,8.39
2017-12-24T05:14:42.981Z,8.38
2017-12-24T05:17:17.497Z,8.42
2017-12-24T05:19:52.014Z,8.37
2017-12-24T05:22:26.386Z,8.44
2017-12-24T05:25:00.866Z,8.39
2017-12-24T05:27:35.270Z,8.43
2017-12-24T05:30:09.646Z,8.44
2017-12-24T05:32:44.175Z,8.44
2017-12-24T05:35:18.550Z,8.41
2017-12-24T05:37:53.108Z,8.44
2017-12-24T05:40:27.518Z,8.41
2017-12-24T05:43:02.017Z,8.39
2017-12-24T05:45:36.417Z,8.38
2017-12-24T05:48:10.966Z,8.36
2017-12-24T05:50:45.354Z,8.32
2017-12-24T05:53:19.977Z,8.33
2017-12-24T05:55:54.365Z,8.33
2017-12-24T05:58:28.871Z,8.32
2017-12-24T06:01:03.225Z,8.27
2017-12-24T06:03:37.763Z,8.16
2017-12-24T06:06:12.162Z,8.23
2017-12-24T06:08:46.802Z,8.25
2017-12-24T06:11:21.411Z,8.22
2017-12-24T06:13:55.919Z,8.25
2017-12-24T06:16:30.318Z,8.26
2017-12-24T06:19:04.805Z,8.29
2017-12-24T06:21:39.303Z,8.32
2017-12-24T06:24:13.781Z,8.27
2017-12-24T06:26:48.178Z,8.29
2017-12-24T06:29:22.747Z,8.30
2017-12-24T06:31:57.199Z,8.33
2017-12-24T06:34:31.749Z,8.35
2017-12-24T06:37:06.101Z,8.35
2017-12-24T06:39:40.850Z,8.35
2017-12-24T06:42:15.334Z,8.30
2017-12-24T06:44:50.407Z,8.32
2017-12-24T06:47:24.746Z,8.37
2017-12-24T06:49:59.249Z,8.37
2017-12-24T06:52:33.745Z,8.38
2017-12-24T06:55:08.137Z,8.37
2017-12-24T06:57:42.558Z,8.37
2017-12-24T07:00:16.934Z,8.40
2017-12-24T07:02:51.462Z,8.44
2017-12-24T07:05:25.898Z,8.40
2017-12-24T07:08:00.442Z,8.38
2017-12-24T07:10:34.829Z,8.34
2017-12-24T07:13:09.338Z,8.29
2017-12-24T07:15:43.867Z,8.34
2017-12-24T07:18:18.230Z,8.37
2017-12-24T07:20:52.734Z,8.36
2017-12-24T07:23:27.230Z,8.48
2017-12-24T07:26:01.689Z,8.45
2017-12-24T07:28:36.140Z,8.51
2017-12-24T07:31:10.629Z,8.56
2017-12-24T07:33:45.146Z,8.49
2017-12-24T07:36:19.582Z,8.63
2017-12-24T07:38:54.121Z,8.68
2017-12-24T07:41:28.530Z,8.69
2017-12-24T07:44:02.884Z,8.82
2017-12-24T07:46:37.237Z,8.71
2017-12-24T07:49:11.858Z,8.74
2017-12-24T07:51:46.274Z,8.82
2017-12-24T07:54:20.798Z,8.71
2017-12-24T07:56:55.214Z,8.70
2017-12-24T07:59:29.730Z,8.75
2017-12-24T08:02:04.081Z,8.73
2017-12-24T08:04:38.565Z,8.81
2017-12-24T08:07:12.987Z,8.77
2017-12-24T08:09:47.561Z,8.73
2017-12-24T08:12:21.994Z,8.77
2017-12-24T08:14:56.482Z,8.77
2017-12-24T08:17:30.954Z,8.75
2017-12-24T08:20:05.503Z,8.52
2017-12-24T08:22:40.046Z,8.85
2017-12-24T08:25:14.465Z,8.81
2017-12-24T08:27:48.943Z,8.85
2017-12-24T08:30:23.527Z,8.84
2017-12-24T08:32:58.038Z,8.91
2017-12-24T08:35:32.408Z,8.85
2017-12-24T08:38:06.970Z,8.90
2017-12-24T08:40:41.409Z,8.88
2017-12-24T08:43:16.077Z,8.87
2017-12-24T08:45:50.695Z,8.92
2017-12-24T08:48:25.235Z,8.93
2017-12-24T08:50:59.617Z,8.88
2017-12-24T08:53:34.162Z,8.88
2017-12-24T08:56:08.534Z,8.87
2017-12-24T08:58:43.025Z,8.88
2017-12-24T09:01:17.419Z,8.87
2017-12-24T09:03:51.984Z,8.85
2017-12-24T09:06:26.423Z,8.85
2017-12-24T09:09:00.914Z,8.86
2017-12-24T09:11:35.353Z,8.83
2017-12-24T09:14:09.986Z,8.81
2017-12-24T09:16:44.350Z,8.51
2017-12-24T09:19:18.963Z,8.84
2017-12-24T09:21:53.329Z,8.86
2017-12-24T09:24:27.859Z,8.90
2017-12-24T09:27:02.233Z,8.95
2017-12-24T09:29:36.734Z,9.03
2017-12-24T09:32:11.197Z,9.01
2017-12-24T09:34:45.696Z,9.12
2017-12-24T09:37:20.065Z,9.22
2017-12-24T09:39:54.546Z,9.26
2017-12-24T09:42:28.921Z,9.32
2017-12-24T09:45:03.534Z,9.39
2017-12-24T09:47:38.089Z,9.46
2017-12-24T09:50:12.438Z,9.46
2017-12-24T09:52:46.994Z,9.53
2017-12-24T09:55:21.366Z,9.63
2017-12-24T09:57:55.877Z,9.68
2017-12-24T10:00:30.351Z,9.74
2017-12-24T10:03:04.949Z,9.83
2017-12-24T10:05:39.344Z,9.76
2017-12-24T10:08:13.894Z,9.77
2017-12-24T10:10:48.437Z,9.43
2017-12-24T10:13:22.991Z,9.59
2017-12-24T10:15:57.450Z,9.63
2017-12-24T10:18:31.925Z,10.29
2017-12-24T10:21:06.337Z,-142.93
2017-12-24T10:23:41.578Z,-142.93
2017-12-24T10:26:16.129Z,-142.93
2017-12-24T10:28:50.606Z,10.58
2017-12-24T10:31:25.018Z,-142.93
2017-12-24T10:33:59.531Z,-142.93
2017-12-24T10:36:33.898Z,-142.93
2017-12-24T10:39:08.267Z,-142.93
2017-12-24T10:41:43.292Z,-142.93
2017-12-24T10:44:17.828Z,-142.93
2017-12-24T10:46:52.232Z,-142.93
2017-12-24T10:49:26.706Z,-142.93
2017-12-24T10:52:01.214Z,-142.93
2017-12-24T10:54:35.731Z,-142.93
2017-12-24T10:57:10.116Z,-142.93
2017-12-24T10:59:44.637Z,-142.93
2017-12-24T11:02:19.036Z,-142.93
2017-12-24T11:04:53.533Z,-142.93
2017-12-24T11:07:27.942Z,-142.93
2017-12-24T11:10:02.423Z,-142.93
2017-12-24T11:12:37.070Z,-142.93
2017-12-24T11:15:11.500Z,-142.93
2017-12-24T11:17:46.061Z,-142.93
2017-12-24T11:20:20.451Z,-142.93
2017-12-24T11:22:55.077Z,-142.93
2017-12-24T11:25:29.470Z,-142.93
2017-12-24T11:28:04.394Z,-142.93
2017-12-24T11:30:39.016Z,-142.93
2017-12-24T11:33:13.594Z,-142.93
2017-12-24T11:35:48.054Z,-142.93
2017-12-24T11:38:22.558Z,-142.93
2017-12-24T11:40:57.025Z,10.33
2017-12-24T11:43:31.505Z,10.27
2017-12-24T11:46:05.984Z,10.07
2017-12-24T11:48:40.479Z,9.99
2017-12-24T11:51:14.786Z,9.95
2017-12-24T11:53:49.510Z,10.23
2017-12-24T11:56:24.325Z,10.24
2017-12-24T11:58:58.815Z,10.20
2017-12-24T12:01:33.266Z,10.29
2017-12-24T12:04:07.783Z,10.19
2017-12-24T12:06:42.258Z,9.94
2017-12-24T12:09:16.677Z,9.72
2017-12-24T12:11:51.119Z,9.79
2017-12-24T12:14:25.660Z,9.90
2017-12-24T12:17:00.108Z,9.90
2017-12-24T12:19:34.750Z,10.10
2017-12-24T12:22:09.204Z,10.25
2017-12-24T12:24:43.779Z,9.83
2017-12-24T12:27:18.382Z,9.68
2017-12-24T12:29:52.874Z,9.60
2017-12-24T12:32:27.334Z,9.54
2017-12-24T12:35:01.882Z,9.51
2017-12-24T12:37:36.366Z,9.49
2017-12-24T12:40:10.773Z,9.54
2017-12-24T12:42:45.366Z,9.51
2017-12-24T12:45:19.774Z,9.40
2017-12-24T12:47:54.222Z,9.32
2017-12-24T12:50:28.697Z,9.21
2017-12-24T12:53:02.996Z,9.11
2017-12-24T12:55:37.446Z,9.15
2017-12-24T12:58:11.793Z,9.03
2017-12-24T13:00:46.255Z,9.02
2017-12-24T13:03:20.764Z,9.01
2017-12-24T13:05:55.133Z,8.97
2017-12-24T13:08:29.620Z,8.98
2017-12-24T13:11:04.050Z,8.93
2017-12-24T13:13:38.551Z,8.96
2017-12-24T13:16:12.906Z,8.78
2017-12-24T13:18:47.534Z,8.61
2017-12-24T13:21:21.889Z,8.72
2017-12-24T13:23:56.395Z,8.73
2017-12-24T13:26:30.850Z,8.70
2017-12-24T13:29:05.357Z,8.69
2017-12-24T13:31:39.714Z,8.69
2017-12-24T13:34:14.279Z,8.68
2017-12-24T13:36:48.727Z,8.72
2017-12-24T13:39:23.263Z,8.70
2017-12-24T13:41:57.729Z,8.72
2017-12-24T13:44:32.218Z,8.70
2017-12-24T13:47:06.586Z,8.72
2017-12-24T13:49:41.004Z,8.80
2017-12-24T13:52:15.479Z,8.79
2017-12-24T13:54:50.033Z,8.74
2017-12-24T13:57:24.435Z,8.78
2017-12-24T13:59:58.949Z,8.83
2017-12-24T14:02:33.456Z,8.78
2017-12-24T14:05:07.984Z,7.60
2017-12-24T14:07:42.465Z,8.76
2017-12-24T14:10:16.958Z,8.63
2017-12-24T14:12:51.456Z,8.68
2017-12-24T14:15:25.829Z,8.72
2017-12-24T14:18:00.301Z,8.67
2017-12-24T14:20:34.653Z,8.69
2017-12-24T14:23:09.148Z,8.66
2017-12-24T14:25:43.931Z,8.71
2017-12-24T14:28:18.538Z,8.72
2017-12-24T14:30:52.966Z,8.72
2017-12-24T14:33:27.539Z,8.68
2017-12-24T14:36:02.043Z,8.76
2017-12-24T14:38:36.594Z,8.77
2017-12-24T14:41:10.938Z,8.76
2017-12-24T14:43:45.505Z,8.77
2017-12-24T14:46:19.850Z,8.74
2017-12-24T14:48:54.785Z,8.79
2017-12-24T14:51:29.210Z,8.67
2017-12-24T14:54:04.629Z,8.64
2017-12-24T14:56:39.210Z,8.56
2017-12-24T14:59:13.670Z,8.50
2017-12-24T15:01:48.042Z,8.49
2017-12-24T15:04:22.525Z,8.44
2017-12-24T15:06:56.953Z,8.31
2017-12-24T15:09:31.447Z,8.32
2017-12-24T15:12:05.798Z,8.23
2017-12-24T15:14:40.365Z,8.18
2017-12-24T15:17:14.974Z,8.18
2017-12-24T15:19:49.357Z,8.08
2017-12-24T15:22:23.834Z,8.00
2017-12-24T15:24:58.382Z,7.98
2017-12-24T15:27:32.807Z,7.96
2017-12-24T15:30:07.378Z,7.89
2017-12-24T15:32:41.974Z,7.85
2017-12-24T15:35:16.393Z,7.83
2017-12-24T15:37:50.914Z,7.82
2017-12-24T15:40:25.341Z,7.80
2017-12-24T15:43:00.486Z,7.79
2017-12-24T15:45:35.027Z,7.77
2017-12-24T15:48:09.467Z,7.75
2017-12-24T15:50:44.200Z,7.77
2017-12-24T15:53:18.685Z,7.75
2017-12-24T15:55:53.065Z,7.74
2017-12-24T15:58:27.626Z,7.73
2017-12-24T16:01:02.094Z,7.75
2017-12-24T16:03:36.611Z,7.76
2017-12-24T16:06:10.959Z,7.77
2017-12-24T16:08:45.471Z,7.80
2017-12-24T16:11:19.809Z,7.81
2017-12-24T16:13:54.334Z,7.85
2017-12-24T16:16:28.745Z,7.84
2017-12-24T16:19:03.313Z,7.87
2017-12-24T16:21:37.662Z,7.91
2017-12-24T16:24:12.647Z,7.89
2017-12-24T16:26:47.070Z,7.97
2017-12-24T16:29:22.050Z,7.95
2017-12-24T16:31:56.474Z,8.02
2017-12-24T16:34:31.845Z,8.00
2017-12-24T16:37:06.339Z,8.00
2017-12-24T16:39:40.938Z,8.12
2017-12-24T16:42:15.394Z,8.16
2017-12-24T16:44:49.955Z,8.21
2017-12-24T16:47:24.326Z,8.25
2017-12-24T16:49:58.832Z,8.25
2017-12-24T16:52:33.217Z,8.26
2017-12-24T16:55:07.722Z,8.14
2017-12-24T16:57:42.216Z,8.34
2017-12-24T17:00:16.557Z,8.40
2017-12-24T17:02:51.150Z,8.52
2017-12-24T17:05:25.583Z,8.65
2017-12-24T17:08:00.034Z,8.64
2017-12-24T17:10:34.448Z,8.59
2017-12-24T17:13:09.069Z,8.44
2017-12-24T17:15:43.418Z,8.58
2017-12-24T17:18:17.970Z,8.58
2017-12-24T17:20:52.478Z,8.56
2017-12-24T17:23:27.042Z,8.64
2017-12-24T17:26:01.533Z,8.63
2017-12-24T17:28:35.987Z,8.60
2017-12-24T17:31:10.417Z,8.62
2017-12-24T17:33:44.937Z,8.67
2017-12-24T17:36:19.322Z,8.62
2017-12-24T17:38:53.798Z,8.56
2017-12-24T17:41:28.250Z,8.51
2017-12-24T17:44:02.747Z,8.48
2017-12-24T17:46:37.102Z,8.36
2017-12-24T17:49:11.762Z,8.27
2017-12-24T17:51:46.156Z,8.26
2017-12-24T17:54:20.706Z,8.21
2017-12-24T17:56:55.097Z,8.12
2017-12-24T17:59:29.589Z,8.11
2017-12-24T18:02:04.069Z,8.04
2017-12-24T18:04:38.657Z,8.02
2017-12-24T18:07:13.063Z,7.97
2017-12-24T18:09:47.498Z,7.95
2017-12-24T18:12:21.938Z,7.99
2017-12-24T18:14:56.455Z,8.02
2017-12-24T18:17:31.085Z,8.00
2017-12-24T18:20:05.698Z,7.96
2017-12-24T18:22:40.190Z,7.89
2017-12-24T18:25:14.613Z,7.95
2017-12-24T18:27:49.122Z,7.94
2017-12-24T18:30:23.631Z,7.88
2017-12-24T18:32:58.222Z,7.86
2017-12-24T18:35:32.621Z,7.82
2017-12-24T18:38:07.245Z,7.82
2017-12-24T18:40:41.634Z,7.78
2017-12-24T18:43:16.188Z,7.76
2017-12-24T18:45:50.573Z,7.74
2017-12-24T18:48:25.062Z,7.73
2017-12-24T18:50:59.661Z,7.71
2017-12-24T18:53:34.078Z,7.67
2017-12-24T18:56:08.435Z,7.67
2017-12-24T18:58:43.001Z,7.66
2017-12-24T19:01:17.454Z,7.69
2017-12-24T19:03:52.016Z,7.67
2017-12-24T19:06:27.129Z,7.61
2017-12-24T19:09:03.049Z,7.70
2017-12-24T19:11:37.410Z,7.74
2017-12-24T19:14:11.914Z,7.78
2017-12-24T19:16:46.301Z,7.75
2017-12-24T19:19:20.916Z,7.74
2017-12-24T19:21:55.317Z,7.73
2017-12-24T19:24:29.781Z,7.48
2017-12-24T19:27:04.247Z,7.64
2017-12-24T19:29:38.786Z,7.63
2017-12-24T19:32:13.162Z,7.68
2017-12-24T19:34:47.657Z,7.67
2017-12-24T19:37:22.080Z,7.67
2017-12-24T19:39:56.910Z,7.57
2017-12-24T19:42:31.563Z,7.43
2017-12-24T19:45:06.083Z,7.40
2017-12-24T19:47:40.675Z,7.34
2017-12-24T19:50:15.146Z,7.30
2017-12-24T19:52:49.690Z,7.23
2017-12-24T19:55:24.168Z,7.18
2017-12-24T19:57:58.679Z,7.19
2017-12-24T20:00:33.057Z,7.20
2017-12-24T20:03:07.606Z,7.20
2017-12-24T20:05:42.074Z,7.20
2017-12-24T20:08:16.629Z,7.24
2017-12-24T20:10:51.046Z,7.25
2017-12-24T20:13:25.655Z,7.24
2017-12-24T20:16:00.030Z,7.29
2017-12-24T20:18:34.553Z,7.34
2017-12-24T20:21:09.085Z,7.29
2017-12-24T20:23:43.618Z,7.31
2017-12-24T20:26:17.990Z,7.32
2017-12-24T20:28:52.493Z,7.26
2017-12-24T20:31:26.883Z,7.29
2017-12-24T20:34:01.442Z,7.30
2017-12-24T20:36:35.786Z,7.32
2017-12-24T20:39:10.347Z,7.31
2017-12-24T20:41:44.802Z,7.30
2017-12-24T20:44:19.380Z,7.32
2017-12-24T20:46:53.769Z,7.29
2017-12-24T20:49:28.321Z,7.31
2017-12-24T20:52:02.670Z,7.30
2017-12-24T20:54:37.231Z,7.29
2017-12-24T20:57:11.710Z,7.28
2017-12-24T20:59:46.075Z,7.24
2017-12-24T21:02:20.501Z,7.20
2017-12-24T21:04:55.065Z,7.11
2017-12-24T21:07:29.958Z,7.08
2017-12-24T21:10:04.582Z,7.05
2017-12-24T21:12:39.010Z,7.00
2017-12-24T21:15:13.496Z,6.98
2017-12-24T21:17:48.023Z,6.93
2017-12-24T21:20:22.402Z,6.95
2017-12-24T21:22:56.956Z,6.95
2017-12-24T21:25:31.662Z,6.97
2017-12-24T21:28:06.087Z,6.91
2017-12-24T21:30:40.479Z,6.95
2017-12-24T21:33:14.974Z,6.96
2017-12-24T21:35:49.329Z,6.94
2017-12-24T21:38:23.750Z,6.95
2017-12-24T21:40:58.121Z,6.97
2017-12-24T21:43:32.729Z,6.95
2017-12-24T21:46:07.182Z,6.96
2017-12-24T21:48:41.573Z,7.04
2017-12-24T21:51:16.046Z,7.03
2017-12-24T21:53:50.630Z,7.12
2017-12-24T21:56:24.993Z,7.14
2017-12-24T21:58:59.570Z,7.17
2017-12-24T22:01:34.014Z,7.15
2017-12-24T22:04:08.534Z,7.19
2017-12-24T22:06:43.025Z,7.26
2017-12-24T22:09:17.598Z,7.31
2017-12-24T22:11:51.982Z,7.33
2017-12-24T22:14:26.544Z,7.40
2017-12-24T22:17:01.038Z,7.49
2017-12-24T22:19:35.535Z,7.53
2017-12-24T22:22:09.966Z,7.41
2017-12-24T22:24:44.513Z,7.57
2017-12-24T22:27:18.877Z,7.56
2017-12-24T22:29:53.386Z,7.56
2017-12-24T22:32:27.846Z,7.53
2017-12-24T22:35:02.378Z,7.47
2017-12-24T22:37:36.775Z,7.48
2017-12-24T22:40:11.128Z,7.47
2017-12-24T22:42:45.754Z,7.44
2017-12-24T22:45:20.354Z,7.41
2017-12-24T22:47:54.810Z,7.42
2017-12-24T22:50:29.171Z,7.40
2017-12-24T22:53:03.802Z,7.36
2017-12-24T22:55:38.441Z,7.37
2017-12-24T22:58:12.933Z,7.33
2017-12-24T23:00:47.381Z,7.26
2017-12-24T23:03:21.865Z,7.19
2017-12-24T23:05:56.351Z,7.15
2017-12-24T23:08:30.982Z,7.09
2017-12-24T23:11:05.365Z,7.05
2017-12-24T23:13:40.005Z,6.99
2017-12-24T23:16:14.447Z,6.92
2017-12-24T23:18:49.023Z,6.70
2017-12-24T23:21:23.397Z,6.86
2017-12-24T23:23:57.918Z,6.82
2017-12-24T23:26:32.434Z,6.80
2017-12-24T23:29:06.923Z,6.74
2017-12-24T23:31:41.359Z,6.70
2017-12-24T23:34:15.798Z,6.67
2017-12-24T23:36:50.284Z,6.64
2017-12-24T23:39:24.821Z,6.60
2017-12-24T23:41:59.178Z,6.56
2017-12-24T23:44:34.213Z,6.53
2017-12-24T23:47:08.583Z,6.47
2017-12-24T23:49:43.158Z,6.44
2017-12-24T23:52:17.677Z,6.42
2017-12-24T23:54:52.233Z,6.36
2017-12-24T23:57:26.876Z,6.33
